ADDS METAR Data INFO
IDs: Format: Raw Decoded Include TAF

Data at: 1412 UTC 12 Dec 2017

KFDY 121353Z AUTO 31013KT 10SM CLR M05/M12 A2987 RMK AO2 SLP119 T10501122
KFDY 121253Z AUTO 32017G22KT 10SM CLR M05/M12 A2984 RMK AO2 PK WND 33029/1221 SLP109 T10501122
KFDY 121153Z AUTO 31019G24KT 10SM SCT039 OVC055 M02/M08 A2980 RMK AO2 PK WND 31027/1116 SNB20E46 SLP095 P0000 60000 T10221083 10006 21022 53025
KFDY 121053Z AUTO 32016G19KT 10SM FEW028 SCT033 OVC044 M01/M06 A2976 RMK AO2 PK WND 31029/1031 UPB35E45SNB15E35B45E47 SLP081 P0000 T10111061
KFDY 121051Z AUTO 32013G20KT 10SM FEW019 BKN036 OVC046 M01/M06 A2975 RMK AO2 PK WND 31029/1031 UPB35E45SNB15E35B45E47 P0000
KFDY 121021Z AUTO 32014G19KT 9SM -SN FEW017 BKN022 OVC055 M01/M05 A2974 RMK AO2 SNB15 P0000 T10061050
KFDY 120953Z AUTO 32011G20KT 10SM FEW020 FEW026 OVC060 M01/M05 A2972 RMK AO2 PK WND 31026/0857 SLP068 T10061050
KFDY 120950Z AUTO 32013G22KT 10SM FEW022 SCT028 OVC060 M01/M05 A2972 RMK AO2 PK WND 31026/0857
KFDY 120921Z AUTO 32014G21KT 10SM SCT013 OVC022 00/M04 A2971 RMK AO2 PK WND 31026/0857 T00001039
KFDY 120853Z AUTO 31015G21KT 8SM OVC011 01/M03 A2970 RMK AO2 SLP061 60000 T00061028 53012
KFDY 120832Z AUTO 31016G22KT 6SM HZ OVC010 01/M02 A2969 RMK AO2 CIG 005V011 T00061022
KFDY 120753Z AUTO 29011KT 3SM BR OVC006 00/M02 A2968 RMK AO2 SNE10 SLP055 P0000 T00001022
KFDY 120709Z AUTO 28009KT 4SM -SN BR OVC008 M01/M03 A2967 RMK AO2 CIG 006V011 P0000 T10061028
KFDY 120653Z AUTO 29008KT 2 1/2SM -SN BR OVC009 M01/M03 A2966 RMK AO2 SNB02 CIG 006V013 SLP049 P0000 T10061028
KFDY 120650Z AUTO 29007KT 3SM -SN OVC009 M01/M03 A2966 RMK AO2 SNB02 P0000
KFDY 120636Z AUTO 30007KT 3SM -SN BR OVC010 M01/M03 A2966 RMK AO2 SNB02 P0000 T10111033
KFDY 120623Z AUTO 31007KT 1SM -SN BKN010 OVC015 M01/M04 A2966 RMK AO2 SNB02 P0000 T10111039
KFDY 120616Z AUTO 30007KT 2SM -SN BKN010 OVC017 M01/M04 A2966 RMK AO2 SNB02 P0000 T10061039
KFDY 120553Z AUTO 32006KT 9SM BKN023 M01/M04 A2965 RMK AO2 SLP043 T10061039 10017 21011 53006
KFDY 120453Z AUTO 35007KT 10SM BKN065 00/M04 A2962 RMK AO2 SLP034 T00001039 400221061
KFDY 120353Z AUTO 13004KT 10SM OVC055 01/M04 A2961 RMK AO2 SLP030 T00111039
KFDY 120253Z AUTO 00000KT 10SM OVC055 02/M04 A2963 RMK AO2 SLP037 T00171039 56029
KFDY 120153Z AUTO 11004KT 10SM OVC065 01/M04 A2966 RMK AO2 SLP047 T00111039
KFDY 120053Z AUTO 14005KT 10SM CLR 01/M04 A2969 RMK AO2 SLP059 T00061044
KFDY 112353Z AUTO 16009KT 10SM SCT110 01/M04 A2972 RMK AO2 SLP068 T00061044 10022 20006 56026
KFDY 112253Z AUTO 15009KT 10SM CLR 01/M05 A2973 RMK AO2 SLP073 T00111050
KFDY 112153Z AUTO 15010KT 10SM CLR 02/M06 A2975 RMK AO2 SLP081 T00171056
KFDY 112053Z AUTO 17011KT 10SM CLR 02/M06 A2980 RMK AO2 SLP095 T00171056 56036
KFDY 111953Z AUTO 18009KT 10SM BKN070 BKN085 BKN110 02/M06 A2982 RMK AO2 SLP104 T00221056
KFDY 111853Z AUTO 20010KT 10SM OVC070 02/M06 A2987 RMK AO2 SLP118 T00171061
KFDY 111753Z AUTO 19012KT 10SM OVC070 01/M07 A2990 RMK AO2 SLP131 60000 T00061067 10011 21056 58033
KFDY 111653Z AUTO 19011KT 10SM FEW025 BKN075 OVC090 01/M06 A2994 RMK AO2 SLP142 T00061061
KFDY 111553Z AUTO 19008KT 10SM BKN055 OVC070 M01/M06 A2998 RMK AO2 SNB1457E14 SLP156 P0000 T10061056
KFDY 111453Z AUTO 17008KT 10SM SCT030 BKN040 OVC050 M02/M06 A3000 RMK AO2 SLP165 T10171061 58010
KFDY 111353Z AUTO 17004KT 10SM OVC034 M03/M07 A3004 RMK AO2 SLP180 T10331067
KFDY 111253Z AUTO 14004KT 10SM OVC036 M04/M07 A3005 RMK AO2 SLP180 T10441072
KFDY 111153Z AUTO 15003KT 10SM FEW035 M04/M08 A3003 RMK AO2 SLP176 T10441078 11006 21061 58002
KFDY 111053Z AUTO 17004KT 10SM BKN035 M05/M08 A3003 RMK AO2 SLP178 T10501078
KFDY 110953Z AUTO 00000KT 10SM OVC037 M05/M08 A3004 RMK AO2 SLP180 T10501078
KFDY 110853Z AUTO 21003KT 10SM CLR M06/M09 A3004 RMK AO2 SLP179 T10611094 51010
KFDY 110753Z AUTO 33004KT 10SM CLR M03/M07 A3002 RMK AO2 SLP173 T10281072
KFDY 110653Z AUTO 32012KT 10SM BKN033 M02/M07 A3003 RMK AO2 SLP173 T10171067
KFDY 110631Z AUTO 32011KT 10SM SCT024 OVC030 M01/M06 A3002 RMK AO2 T10111056
KFDY 110553Z AUTO 29009KT 10SM OVC027 M01/M05 A3001 RMK AO2 SLP167 T10061050 10000 21006 53012
KFDY 110453Z AUTO 28009KT 10SM OVC026 M01/M06 A2999 RMK AO2 SLP161 T10061056 400001050
KFDY 110428Z AUTO 29010KT 10SM BKN029 OVC034 M01/M06 A2998 RMK AO2 T10061061
KFDY 110353Z AUTO 29011KT 10SM FEW029 OVC035 M01/M06 A2997 RMK AO2 SLP156 T10061061
KFDY 110350Z AUTO 29008KT 10SM SCT029 OVC035 M01/M06 A2997 RMK AO2
KFDY 110329Z AUTO 28009KT 10SM BKN029 OVC036 00/M06 A2997 RMK AO2 T00001061
KFDY 110253Z AUTO 27007KT 10SM OVC034 00/M07 A2996 RMK AO2 SLP152 T00001067 53003